Time;durP1;ratioP1;P1;durP2;ratioP2;P2;SDS_P1;SDS_P2;PMS_P1;PMS_P2;Temp;Humidity;BMP_temperature;BMP_pressure;BME280_temperature;BME280_humidity;BME280_pressure;Samples;Min_cycle;Max_cycle;Signal;HPM_P1;HPM_P2
2023/12/26 00:01:54;;;;;;;0.25;0.17;;;9.70;99.90;;;;;;5086377;28;20039;-72
2023/12/26 00:04:22;;;;;;;0.57;0.30;;;9.70;99.90;;;;;;5085715;28;20043;-72
2023/12/26 00:06:48;;;;;;;0.40;0.20;;;9.70;99.90;;;;;;5085408;28;20040;-72
2023/12/26 00:09:15;;;;;;;1.23;0.20;;;9.70;99.90;;;;;;5084584;28;20094;-72
2023/12/26 00:11:45;;;;;;;0.70;0.43;;;9.70;99.90;;;;;;5066839;28;20038;-72
2023/12/26 00:14:12;;;;;;;0.25;0.10;;;9.70;99.90;;;;;;5083060;28;20074;-72
2023/12/26 00:16:40;;;;;;;0.50;0.40;;;9.70;99.90;;;;;;5088259;28;20047;-72
2023/12/26 00:19:05;;;;;;;1.33;0.55;;;9.70;99.90;;;;;;5068625;28;20036;-72
2023/12/26 00:21:31;;;;;;;0.10;0.10;;;9.70;99.90;;;;;;5082978;28;20036;-72
2023/12/26 00:23:57;;;;;;;0.20;0.10;;;9.70;99.90;;;;;;5070375;28;20061;-72
2023/12/26 00:26:23;;;;;;;0.32;0.20;;;9.70;99.90;;;;;;5077318;28;20146;-72
2023/12/26 00:28:49;;;;;;;0.17;0.15;;;9.70;99.90;;;;;;5081897;28;20100;-72
2023/12/26 00:31:14;;;;;;;0.10;0.10;;;9.70;99.90;;;;;;5065355;28;20401;-72
2023/12/26 00:33:40;;;;;;;0.38;0.10;;;9.80;99.90;;;;;;5086947;28;20128;-72
2023/12/26 00:36:11;;;;;;;0.10;0.10;;;9.80;99.90;;;;;;5066122;28;20043;-72
2023/12/26 00:38:37;;;;;;;0.57;0.28;;;9.70;99.90;;;;;;5085920;28;20078;-72
2023/12/26 00:41:03;;;;;;;0.22;0.20;;;9.70;99.90;;;;;;5085571;28;20086;-72
2023/12/26 00:43:28;;;;;;;0.35;0.15;;;9.80;99.90;;;;;;5084066;28;20078;-72
2023/12/26 00:45:54;;;;;;;0.25;0.20;;;9.80;99.90;;;;;;5069625;28;20514;-72
2023/12/26 00:48:20;;;;;;;0.30;0.20;;;9.80;99.90;;;;;;5085814;28;20036;-72
2023/12/26 00:50:45;;;;;;;0.35;0.20;;;9.80;99.90;;;;;;5080542;28;20040;-72
2023/12/26 00:53:11;;;;;;;0.38;0.20;;;9.80;99.90;;;;;;5082995;28;20028;-72
2023/12/26 00:55:36;;;;;;;0.10;0.10;;;9.80;99.90;;;;;;5087016;28;20032;-72
2023/12/26 00:58:03;;;;;;;0.00;0.00;;;9.80;99.90;;;;;;5061249;28;20037;-72
2023/12/26 01:00:28;;;;;;;0.10;0.10;;;9.80;99.90;;;;;;5082773;28;20032;-72
2023/12/26 01:02:54;;;;;;;0.30;0.20;;;9.80;99.90;;;;;;5067255;28;20103;-72
2023/12/26 01:05:20;;;;;;;1.02;0.10;;;9.80;99.90;;;;;;5086204;28;20111;-72
2023/12/26 01:07:46;;;;;;;0.10;0.10;;;9.80;99.90;;;;;;5081455;28;20555;-72
2023/12/26 01:10:12;;;;;;;0.28;0.10;;;9.90;99.90;;;;;;5084188;28;20043;-72
2023/12/26 01:12:38;;;;;;;0.10;0.00;;;9.80;99.90;;;;;;5069575;28;20101;-72
2023/12/26 01:15:04;;;;;;;0.03;0.00;;;9.80;99.90;;;;;;5088613;28;20043;-72
2023/12/26 01:17:30;;;;;;;0.10;0.10;;;9.80;99.90;;;;;;5085070;28;20044;-72
2023/12/26 01:19:56;;;;;;;0.30;0.17;;;9.80;99.90;;;;;;5059716;28;20038;-72
2023/12/26 01:22:22;;;;;;;0.63;0.10;;;9.80;99.90;;;;;;5083507;28;20048;-72
2023/12/26 01:24:50;;;;;;;0.00;0.00;;;9.80;99.90;;;;;;5081671;28;20105;-72
2023/12/26 01:27:16;;;;;;;0.60;0.30;;;9.90;99.90;;;;;;5085884;28;20607;-72
2023/12/26 01:29:42;;;;;;;0.05;0.05;;;9.80;99.90;;;;;;5085745;28;20058;-72
2023/12/26 01:32:07;;;;;;;0.10;0.00;;;9.80;99.90;;;;;;5069604;28;20412;-72
2023/12/26 01:34:33;;;;;;;0.40;0.10;;;9.90;99.90;;;;;;5085443;28;20107;-72
2023/12/26 01:36:59;;;;;;;0.10;0.10;;;9.80;99.90;;;;;;5066791;28;20075;-72
2023/12/26 01:39:26;;;;;;;0.00;0.00;;;9.90;99.90;;;;;;5083196;28;20051;-72
2023/12/26 01:41:52;;;;;;;0.08;0.05;;;9.80;99.90;;;;;;5081166;28;20513;-72
2023/12/26 01:44:17;;;;;;;0.43;0.15;;;9.80;99.90;;;;;;5085956;28;20032;-72
2023/12/26 01:46:43;;;;;;;0.00;0.00;;;9.80;99.90;;;;;;5084173;28;20032;-72
2023/12/26 01:49:09;;;;;;;0.80;0.13;;;9.80;99.90;;;;;;5069919;28;20040;-72
2023/12/26 01:51:35;;;;;;;0.10;0.00;;;9.80;99.90;;;;;;5084012;28;20040;-72
2023/12/26 01:54:01;;;;;;;0.10;0.10;;;9.80;99.90;;;;;;5067757;28;20094;-72
2023/12/26 01:56:29;;;;;;;0.25;0.20;;;9.80;99.90;;;;;;5067527;28;20117;-72
2023/12/26 01:58:55;;;;;;;1.02;0.10;;;9.80;99.90;;;;;;5085610;28;20048;-72
2023/12/26 02:01:21;;;;;;;0.52;0.40;;;9.80;99.90;;;;;;5085816;28;20071;-72
2023/12/26 02:03:47;;;;;;;0.73;0.10;;;9.80;99.90;;;;;;5084930;28;20032;-72
2023/12/26 02:06:16;;;;;;;0.20;0.00;;;9.80;99.90;;;;;;5087957;28;20034;-72
2023/12/26 02:08:42;;;;;;;0.08;0.05;;;9.80;99.90;;;;;;5067057;28;20127;-72
2023/12/26 02:11:07;;;;;;;0.80;0.30;;;9.80;99.90;;;;;;5087025;28;20127;-72
2023/12/26 02:13:36;;;;;;;0.20;0.17;;;9.70;99.90;;;;;;5088120;28;20089;-72
2023/12/26 02:16:11;;;;;;;0.40;0.20;;;9.70;99.90;;;;;;5089464;28;20051;-72
2023/12/26 02:18:37;;;;;;;3.00;0.50;;;9.70;99.90;;;;;;5089621;28;20511;-72
2023/12/26 02:21:04;;;;;;;2.20;0.25;;;9.70;99.90;;;;;;5088262;28;20031;-72
2023/12/26 02:23:33;;;;;;;0.17;0.10;;;9.70;99.90;;;;;;5087679;28;20036;-72
2023/12/26 02:26:04;;;;;;;4.03;0.20;;;9.70;99.90;;;;;;5065480;28;20050;-72
2023/12/26 02:28:31;;;;;;;0.50;0.20;;;9.70;99.90;;;;;;5087345;28;20097;-72
2023/12/26 02:31:02;;;;;;;0.10;0.10;;;9.70;99.90;;;;;;5088682;28;20050;-72
2023/12/26 02:33:30;;;;;;;1.13;0.40;;;9.70;99.90;;;;;;5087145;28;20477;-72
2023/12/26 02:35:57;;;;;;;2.03;0.20;;;9.70;99.90;;;;;;5072044;28;20036;-72
2023/12/26 02:38:22;;;;;;;0.00;0.00;;;9.70;99.90;;;;;;5078932;28;20050;-72
2023/12/26 02:40:52;;;;;;;0.60;0.10;;;9.70;99.90;;;;;;5081870;28;21213;-72
2023/12/26 02:43:26;;;;;;;0.30;0.15;;;9.70;99.90;;;;;;5088358;28;20044;-72
2023/12/26 02:45:51;;;;;;;0.38;0.20;;;9.70;99.90;;;;;;5058459;28;20074;-72
2023/12/26 02:48:17;;;;;;;4.57;0.20;;;9.60;99.90;;;;;;5083040;28;20068;-72
2023/12/26 02:50:44;;;;;;;0.00;0.00;;;9.60;99.90;;;;;;5060734;28;20483;-72
2023/12/26 02:53:10;;;;;;;0.30;0.20;;;9.60;99.90;;;;;;5087182;28;20048;-72
2023/12/26 02:55:35;;;;;;;0.20;0.00;;;9.60;99.90;;;;;;5069117;28;20486;-71
2023/12/26 02:58:01;;;;;;;0.82;0.35;;;9.60;99.90;;;;;;5087500;28;20044;-72
2023/12/26 03:00:26;;;;;;;0.05;0.00;;;9.60;99.90;;;;;;5081450;28;20024;-71
2023/12/26 03:02:52;;;;;;;0.88;0.10;;;9.50;99.90;;;;;;5087491;28;20097;-71
2023/12/26 03:05:18;;;;;;;0.20;0.10;;;9.50;99.90;;;;;;5087348;28;20039;-72
2023/12/26 03:07:43;;;;;;;0.10;0.10;;;9.50;99.90;;;;;;5080663;28;20046;-72
2023/12/26 03:10:09;;;;;;;0.70;0.40;;;9.50;99.90;;;;;;5088303;28;20130;-72
2023/12/26 03:12:36;;;;;;;0.80;0.20;;;9.50;99.90;;;;;;5067495;28;20039;-72
2023/12/26 03:15:02;;;;;;;1.30;0.22;;;9.50;99.90;;;;;;5087538;28;20054;-72
2023/12/26 03:17:28;;;;;;;0.45;0.10;;;9.50;99.90;;;;;;5087100;28;20048;-72
2023/12/26 03:19:54;;;;;;;0.30;0.10;;;9.50;99.90;;;;;;5069591;28;20042;-72
2023/12/26 03:22:20;;;;;;;1.20;0.30;;;9.40;99.90;;;;;;5072540;28;20067;-72
2023/12/26 03:24:46;;;;;;;1.45;0.30;;;9.40;99.90;;;;;;5082356;28;20412;-72
2023/12/26 03:27:12;;;;;;;1.80;0.10;;;9.40;99.90;;;;;;5057017;28;20097;-72
2023/12/26 03:29:38;;;;;;;0.90;0.30;;;9.50;99.90;;;;;;5087313;28;20036;-72
2023/12/26 03:32:04;;;;;;;2.80;0.10;;;9.40;99.90;;;;;;5070118;28;20059;-72
2023/12/26 03:34:30;;;;;;;2.35;0.30;;;9.30;99.90;;;;;;5082933;28;20025;-72
2023/12/26 03:36:55;;;;;;;0.52;0.20;;;9.30;99.90;;;;;;5058585;28;20086;-71
2023/12/26 03:39:21;;;;;;;0.38;0.10;;;9.20;99.90;;;;;;5065542;28;20040;-72
2023/12/26 03:41:48;;;;;;;0.15;0.00;;;9.10;99.90;;;;;;5069671;28;20040;-72
2023/12/26 03:44:18;;;;;;;0.20;0.20;;;8.90;99.90;;;;;;5084827;28;20436;-71
2023/12/26 03:46:44;;;;;;;0.90;0.20;;;8.90;99.90;;;;;;5084325;28;20028;-72
2023/12/26 03:49:10;;;;;;;0.10;0.10;;;8.80;99.90;;;;;;5088069;28;20034;-72
2023/12/26 03:51:36;;;;;;;0.15;0.10;;;8.70;99.90;;;;;;5087251;28;20081;-72
2023/12/26 03:54:03;;;;;;;2.20;0.10;;;8.70;99.90;;;;;;5084124;28;20047;-72
2023/12/26 03:56:35;;;;;;;1.55;0.03;;;8.60;99.90;;;;;;5083317;28;20089;-72
2023/12/26 03:59:02;;;;;;;2.72;0.10;;;8.50;99.90;;;;;;5087588;28;20039;-72
2023/12/26 04:01:27;;;;;;;0.52;0.10;;;8.50;99.90;;;;;;5086710;28;20047;-72
2023/12/26 04:03:53;;;;;;;2.67;0.10;;;8.40;99.90;;;;;;5086482;28;20401;-72
2023/12/26 04:06:19;;;;;;;0.35;0.20;;;8.40;99.90;;;;;;5074946;28;20043;-71
2023/12/26 04:08:45;;;;;;;0.17;0.10;;;8.40;99.90;;;;;;5070421;28;20422;-72
2023/12/26 04:11:12;;;;;;;0.52;0.17;;;8.40;99.90;;;;;;5086161;28;20035;-71
2023/12/26 04:13:38;;;;;;;2.22;0.22;;;8.30;99.90;;;;;;5080468;28;20177;-71
2023/12/26 04:16:04;;;;;;;1.95;0.20;;;8.40;99.90;;;;;;5081088;28;20085;-72
2023/12/26 04:18:30;;;;;;;0.10;0.10;;;8.40;99.90;;;;;;5084457;28;20412;-71
2023/12/26 04:20:56;;;;;;;5.45;0.57;;;8.30;99.90;;;;;;5085557;28;20042;-72
2023/12/26 04:23:21;;;;;;;0.82;0.50;;;8.30;99.90;;;;;;5082076;28;20071;-72
2023/12/26 04:25:47;;;;;;;2.25;0.43;;;8.30;99.90;;;;;;5068011;28;20032;-71
2023/12/26 04:28:13;;;;;;;4.57;0.52;;;8.30;99.90;;;;;;5100249;28;20378;-71
2023/12/26 04:30:40;;;;;;;0.82;0.20;;;8.30;99.90;;;;;;5084318;28;20031;-72
2023/12/26 04:33:07;;;;;;;0.28;0.10;;;8.30;99.90;;;;;;5070616;28;20028;-72
2023/12/26 04:35:33;;;;;;;0.57;0.30;;;8.30;99.90;;;;;;5086630;28;20059;-72
2023/12/26 04:37:59;;;;;;;0.70;0.30;;;8.20;99.90;;;;;;5087637;28;20036;-72
2023/12/26 04:40:26;;;;;;;1.90;0.73;;;8.20;99.90;;;;;;5063915;28;20039;-72
2023/12/26 04:42:52;;;;;;;4.15;0.32;;;8.30;99.90;;;;;;5085713;28;20109;-71
2023/12/26 04:45:17;;;;;;;0.30;0.20;;;8.30;99.90;;;;;;5082566;28;20064;-71
2023/12/26 04:47:43;;;;;;;0.47;0.10;;;8.20;99.90;;;;;;5086521;28;20122;-72
2023/12/26 04:50:09;;;;;;;0.38;0.30;;;8.30;99.90;;;;;;5066131;28;20507;-71
2023/12/26 04:52:35;;;;;;;0.20;0.10;;;8.20;99.90;;;;;;5061740;28;20055;-71
2023/12/26 04:55:01;;;;;;;0.50;0.10;;;8.20;99.90;;;;;;5082230;28;20040;-71
2023/12/26 04:57:27;;;;;;;0.93;0.30;;;8.20;99.90;;;;;;5080381;28;20092;-72
2023/12/26 04:59:53;;;;;;;0.65;0.20;;;8.20;99.90;;;;;;5064906;28;20055;-72
2023/12/26 05:02:18;;;;;;;0.30;0.10;;;8.20;99.90;;;;;;5082951;28;20102;-72
2023/12/26 05:04:44;;;;;;;3.92;0.50;;;8.20;99.90;;;;;;5081283;28;20066;-72
2023/12/26 05:07:10;;;;;;;0.98;0.30;;;8.20;99.90;;;;;;5080728;28;20059;-72
2023/12/26 05:09:35;;;;;;;1.63;0.63;;;8.10;99.90;;;;;;5068378;28;20032;-72
2023/12/26 05:12:01;;;;;;;0.68;0.32;;;8.20;99.90;;;;;;5079960;28;20048;-72
2023/12/26 05:14:27;;;;;;;0.82;0.10;;;8.10;99.90;;;;;;5079608;28;20028;-72
2023/12/26 05:16:53;;;;;;;1.38;0.30;;;8.10;99.90;;;;;;5085358;28;20490;-72
2023/12/26 05:19:19;;;;;;;1.83;0.50;;;8.20;99.90;;;;;;5074485;28;20044;-72
2023/12/26 05:21:45;;;;;;;0.65;0.32;;;8.20;99.90;;;;;;5082334;28;20039;-71
2023/12/26 05:24:10;;;;;;;0.30;0.20;;;8.20;99.90;;;;;;5069321;28;20065;-72
2023/12/26 05:26:43;;;;;;;0.43;0.25;;;8.20;99.90;;;;;;5082385;28;20036;-72
2023/12/26 05:29:10;;;;;;;1.02;0.20;;;8.20;99.90;;;;;;5071542;28;20072;-72
2023/12/26 05:31:36;;;;;;;1.70;0.50;;;8.20;99.90;;;;;;5073258;28;20048;-72
2023/12/26 05:34:03;;;;;;;1.55;0.30;;;8.20;99.90;;;;;;5063692;28;20044;-72
2023/12/26 05:36:28;;;;;;;1.60;0.32;;;8.20;99.90;;;;;;5056117;28;20040;-72
2023/12/26 05:38:54;;;;;;;0.47;0.30;;;8.30;99.90;;;;;;5062720;28;20109;-72
2023/12/26 05:41:20;;;;;;;0.45;0.32;;;8.30;99.90;;;;;;5071102;28;20082;-72
2023/12/26 05:43:45;;;;;;;0.60;0.15;;;8.30;99.90;;;;;;5064360;28;20040;-71
2023/12/26 05:46:11;;;;;;;1.02;0.65;;;8.30;99.90;;;;;;5082156;28;20035;-72
2023/12/26 05:48:36;;;;;;;0.10;0.10;;;8.30;99.90;;;;;;5065727;28;20036;-72
2023/12/26 05:51:03;;;;;;;6.15;0.50;;;8.30;99.90;;;;;;5075686;28;20118;-72
2023/12/26 05:53:30;;;;;;;4.03;0.50;;;8.40;99.90;;;;;;5065705;28;20063;-72
2023/12/26 05:55:59;;;;;;;2.75;0.10;;;8.40;99.90;;;;;;5068845;28;20036;-72
2023/12/26 05:58:25;;;;;;;2.60;0.28;;;8.40;99.90;;;;;;5082074;28;20622;-72
2023/12/26 06:00:52;;;;;;;1.58;0.30;;;8.40;99.90;;;;;;5072256;28;20036;-72
2023/12/26 06:03:18;;;;;;;1.10;0.22;;;8.40;99.90;;;;;;5077094;28;20032;-72
2023/12/26 06:05:46;;;;;;;0.17;0.10;;;8.50;99.90;;;;;;5085745;28;20036;-72
2023/12/26 06:08:11;;;;;;;0.73;0.30;;;8.40;99.90;;;;;;5078265;28;20406;-72
2023/12/26 06:10:37;;;;;;;0.57;0.30;;;8.50;99.90;;;;;;5074711;28;20036;-72
2023/12/26 06:13:03;;;;;;;0.38;0.20;;;8.50;99.90;;;;;;5084801;28;20047;-72
2023/12/26 06:15:29;;;;;;;1.15;0.45;;;8.50;99.90;;;;;;5077348;28;20032;-71
2023/12/26 06:17:55;;;;;;;0.20;0.20;;;8.60;99.90;;;;;;5055505;28;20039;-72
2023/12/26 06:20:24;;;;;;;2.83;0.20;;;8.60;99.90;;;;;;5079780;28;20040;-72
2023/12/26 06:22:50;;;;;;;1.10;0.20;;;8.60;99.90;;;;;;5075373;28;20024;-72
2023/12/26 06:25:15;;;;;;;0.00;0.00;;;8.60;99.90;;;;;;5076550;28;20408;-72
2023/12/26 06:27:41;;;;;;;1.95;0.50;;;8.60;99.90;;;;;;5081735;28;20040;-72
2023/12/26 06:30:07;;;;;;;0.80;0.32;;;8.70;99.90;;;;;;5077520;28;20486;-72
2023/12/26 06:32:33;;;;;;;2.45;0.77;;;8.70;99.90;;;;;;5063124;28;20131;-72
2023/12/26 06:34:59;;;;;;;0.10;0.05;;;8.60;99.90;;;;;;5076238;28;20124;-72
2023/12/26 06:37:24;;;;;;;2.25;0.40;;;8.70;99.90;;;;;;5079740;28;20035;-72
2023/12/26 06:39:50;;;;;;;1.02;0.28;;;8.70;99.90;;;;;;5061647;28;20039;-72
2023/12/26 06:42:16;;;;;;;1.88;0.40;;;8.70;99.90;;;;;;5077759;28;20080;-72
2023/12/26 06:44:41;;;;;;;0.77;0.40;;;8.70;99.90;;;;;;5059279;28;20521;-72
2023/12/26 06:47:07;;;;;;;3.08;0.40;;;8.80;99.90;;;;;;5072664;28;20390;-72
2023/12/26 06:49:33;;;;;;;0.43;0.30;;;8.70;99.90;;;;;;5086578;28;20092;-72
2023/12/26 06:52:00;;;;;;;0.80;0.20;;;8.80;99.90;;;;;;5059510;28;20425;-72
2023/12/26 06:54:26;;;;;;;2.67;0.20;;;8.70;99.90;;;;;;5064642;28;20036;-72
2023/12/26 06:56:52;;;;;;;1.38;0.30;;;8.70;99.90;;;;;;5080691;28;20123;-72
2023/12/26 06:59:18;;;;;;;0.13;0.05;;;8.70;99.90;;;;;;5072898;28;20253;-72
2023/12/26 07:01:47;;;;;;;0.85;0.40;;;8.80;99.90;;;;;;5066794;28;20039;-72
2023/12/26 07:04:13;;;;;;;4.07;1.02;;;8.80;99.90;;;;;;5077067;28;20410;-72
2023/12/26 07:06:38;;;;;;;0.77;0.28;;;8.80;99.90;;;;;;5076773;28;20032;-72
2023/12/26 07:09:04;;;;;;;1.15;0.25;;;8.80;99.90;;;;;;5073038;28;20044;-72
2023/12/26 07:11:30;;;;;;;0.20;0.20;;;8.70;99.90;;;;;;5073009;28;20107;-72
2023/12/26 07:13:55;;;;;;;3.63;0.45;;;8.80;99.90;;;;;;5084994;28;20414;-72
2023/12/26 07:16:21;;;;;;;0.50;0.20;;;8.70;99.90;;;;;;5079527;28;20037;-72
2023/12/26 07:18:47;;;;;;;1.02;0.20;;;8.80;99.90;;;;;;5079930;28;20478;-72
2023/12/26 07:21:16;;;;;;;2.38;0.30;;;8.80;99.90;;;;;;5061150;28;20028;-72
2023/12/26 07:23:44;;;;;;;4.15;0.40;;;8.70;99.90;;;;;;5077923;28;20520;-72
2023/12/26 07:26:11;;;;;;;1.45;0.47;;;8.80;99.90;;;;;;5077231;28;20449;-72
2023/12/26 07:28:36;;;;;;;1.45;0.30;;;8.70;99.90;;;;;;5056940;28;20068;-76
2023/12/26 07:31:02;;;;;;;1.30;0.35;;;8.80;99.90;;;;;;5079617;28;20125;-72
2023/12/26 07:33:28;;;;;;;0.98;0.30;;;8.80;99.90;;;;;;5061397;28;20039;-73
2023/12/26 07:35:57;;;;;;;1.00;0.60;;;8.70;99.90;;;;;;5065085;28;20038;-73
2023/12/26 07:38:24;;;;;;;2.10;0.13;;;8.70;99.90;;;;;;5081218;28;20515;-72
2023/12/26 07:40:50;;;;;;;1.95;0.60;;;8.70;99.90;;;;;;5086416;28;20473;-73
2023/12/26 07:43:16;;;;;;;0.20;0.17;;;8.70;99.90;;;;;;5083209;28;20139;-72
2023/12/26 07:45:42;;;;;;;1.73;0.20;;;8.70;99.90;;;;;;5065425;28;20028;-71
2023/12/26 07:48:08;;;;;;;0.90;0.50;;;8.70;99.90;;;;;;5079635;28;20056;-72
2023/12/26 07:50:34;;;;;;;28.15;13.45;;;8.70;99.90;;;;;;5086693;28;20065;-72
2023/12/26 07:52:59;;;;;;;4.45;2.33;;;8.70;99.90;;;;;;5082928;28;20100;-73
2023/12/26 07:55:25;;;;;;;8.05;3.22;;;8.70;99.90;;;;;;5079517;28;20040;-73
2023/12/26 07:57:51;;;;;;;1.50;0.70;;;8.70;99.90;;;;;;5081857;28;20040;-73
2023/12/26 08:00:17;;;;;;;2.80;0.52;;;8.60;99.90;;;;;;5099937;28;20466;-72
2023/12/26 08:02:42;;;;;;;6.18;1.10;;;8.60;99.90;;;;;;5081516;28;20061;-72
2023/12/26 08:05:09;;;;;;;0.82;0.50;;;8.70;99.90;;;;;;5082402;28;20084;-72
2023/12/26 08:07:35;;;;;;;2.13;0.88;;;8.70;99.90;;;;;;5084846;28;20036;-72
2023/12/26 08:10:00;;;;;;;9.57;4.35;;;8.70;99.90;;;;;;5091911;28;20691;-72
2023/12/26 08:12:26;;;;;;;4.13;0.75;;;8.70;99.90;;;;;;5080558;28;20469;-72
2023/12/26 08:14:52;;;;;;;3.83;1.08;;;8.70;99.90;;;;;;5062914;28;20452;-72
2023/12/26 08:17:17;;;;;;;2.70;0.35;;;8.70;99.90;;;;;;5081275;28;20051;-72
2023/12/26 08:19:43;;;;;;;1.40;0.68;;;8.70;99.90;;;;;;5077286;28;20032;-72
2023/12/26 08:22:09;;;;;;;1.70;0.40;;;8.70;99.90;;;;;;5084215;28;20294;-76
2023/12/26 08:24:35;;;;;;;1.92;1.10;;;8.70;99.90;;;;;;5063526;28;20032;-72
2023/12/26 08:27:00;;;;;;;1.63;1.08;;;8.70;99.90;;;;;;5060609;28;20386;-72
2023/12/26 08:29:26;;;;;;;1.08;0.43;;;8.70;99.90;;;;;;5080652;28;20066;-72
2023/12/26 08:31:53;;;;;;;2.33;1.23;;;8.70;99.90;;;;;;5078718;28;20055;-72
2023/12/26 08:34:19;;;;;;;2.55;1.15;;;8.70;99.90;;;;;;5078139;28;20048;-72
2023/12/26 08:36:45;;;;;;;2.28;0.90;;;8.70;99.90;;;;;;5079511;28;20043;-72
2023/12/26 08:39:10;;;;;;;0.90;0.40;;;8.70;99.90;;;;;;5078686;28;20049;-72
2023/12/26 08:41:37;;;;;;;2.70;0.90;;;8.70;99.90;;;;;;5061952;28;20147;-73
2023/12/26 08:44:02;;;;;;;7.45;0.70;;;8.70;99.90;;;;;;5064756;28;20040;-73
2023/12/26 08:46:28;;;;;;;3.05;0.80;;;8.70;99.90;;;;;;5078298;28;20401;-72
2023/12/26 08:48:54;;;;;;;1.35;0.40;;;8.70;99.90;;;;;;5076208;28;20036;-72
2023/12/26 08:51:19;;;;;;;2.45;0.28;;;8.70;99.90;;;;;;5062779;28;20125;-72
2023/12/26 08:53:46;;;;;;;3.80;0.50;;;8.70;99.90;;;;;;5057560;28;20390;-72
2023/12/26 08:56:13;;;;;;;3.45;1.13;;;8.70;99.90;;;;;;5062453;28;20446;-72
2023/12/26 08:58:38;;;;;;;1.67;0.20;;;8.70;99.90;;;;;;5057690;28;20036;-72
2023/12/26 09:01:06;;;;;;;5.03;0.80;;;8.80;99.90;;;;;;5072711;28;20194;-73
2023/12/26 09:03:32;;;;;;;4.07;0.32;;;8.80;99.90;;;;;;5074416;28;20036;-72
2023/12/26 09:05:57;;;;;;;0.85;0.47;;;8.80;99.90;;;;;;5077905;28;20130;-72
2023/12/26 09:08:23;;;;;;;1.77;0.65;;;8.80;99.90;;;;;;5056902;28;20546;-73
2023/12/26 09:10:49;;;;;;;3.60;0.63;;;8.80;99.90;;;;;;5066524;28;20059;-72
2023/12/26 09:13:16;;;;;;;0.88;0.40;;;8.80;99.90;;;;;;5077634;28;20075;-72
2023/12/26 09:15:43;;;;;;;1.67;0.40;;;8.80;99.90;;;;;;5076780;28;20044;-72
2023/12/26 09:18:09;;;;;;;7.13;1.10;;;8.80;99.90;;;;;;5075064;28;20296;-72
2023/12/26 09:20:35;;;;;;;3.45;0.70;;;8.80;99.90;;;;;;5081508;28;20294;-72
2023/12/26 09:23:00;;;;;;;1.63;0.47;;;8.80;99.90;;;;;;5081017;28;20047;-72
2023/12/26 09:25:26;;;;;;;1.50;0.65;;;8.80;99.90;;;;;;5084476;28;20106;-72
2023/12/26 09:27:52;;;;;;;1.02;0.60;;;8.80;99.90;;;;;;5069182;28;20459;-72
2023/12/26 09:30:18;;;;;;;0.10;0.10;;;8.80;99.90;;;;;;5088776;28;20048;-72
2023/12/26 09:32:43;;;;;;;0.75;0.50;;;8.80;99.90;;;;;;5086991;28;20036;-72
2023/12/26 09:35:09;;;;;;;3.25;1.08;;;8.80;99.90;;;;;;5088378;28;20036;-72
2023/12/26 09:37:38;;;;;;;4.25;0.38;;;8.90;99.90;;;;;;5086672;28;20114;-72
2023/12/26 09:40:06;;;;;;;5.20;1.35;;;8.90;99.90;;;;;;5088498;28;20111;-72
2023/12/26 09:42:32;;;;;;;3.58;0.52;;;8.90;99.90;;;;;;5086168;28;20040;-72
2023/12/26 09:44:58;;;;;;;1.95;1.00;;;8.90;99.90;;;;;;5088488;28;20053;-72
2023/12/26 09:47:25;;;;;;;1.25;0.50;;;8.90;99.90;;;;;;5090398;28;20036;-71
2023/12/26 09:49:53;;;;;;;3.10;1.45;;;8.90;99.90;;;;;;5073449;28;20383;-71
2023/12/26 09:52:21;;;;;;;0.85;0.52;;;8.90;99.90;;;;;;5086233;28;20040;-72
2023/12/26 09:54:48;;;;;;;3.58;0.82;;;8.90;99.90;;;;;;5089529;28;20044;-72
2023/12/26 09:57:15;;;;;;;1.00;0.57;;;8.90;99.90;;;;;;5085402;28;20047;-71
2023/12/26 09:59:42;;;;;;;2.78;0.73;;;8.90;99.90;;;;;;5085840;28;20087;-71
2023/12/26 10:02:14;;;;;;;2.45;0.73;;;9.00;99.90;;;;;;5086148;28;20047;-71
2023/12/26 10:04:41;;;;;;;2.58;0.40;;;9.00;99.90;;;;;;5080532;28;20779;-71
2023/12/26 10:07:06;;;;;;;1.50;0.38;;;9.00;99.90;;;;;;5076976;28;20032;-72
2023/12/26 10:09:32;;;;;;;2.42;0.70;;;9.00;99.90;;;;;;5063350;28;20048;-71
2023/12/26 10:11:58;;;;;;;0.28;0.20;;;9.00;99.90;;;;;;5081171;28;20050;-71
2023/12/26 10:14:31;;;;;;;6.57;1.17;;;9.00;99.90;;;;;;5076553;28;20101;-71
2023/12/26 10:16:57;;;;;;;3.03;0.28;;;9.00;99.90;;;;;;5067981;28;20062;-72
2023/12/26 10:19:23;;;;;;;3.10;0.60;;;9.00;99.90;;;;;;5076686;28;20082;-72
2023/12/26 10:21:52;;;;;;;0.32;0.20;;;9.00;99.90;;;;;;5078761;28;20367;-72
2023/12/26 10:24:21;;;;;;;1.00;0.60;;;9.10;99.90;;;;;;5078673;28;20036;-72
2023/12/26 10:26:48;;;;;;;0.10;0.10;;;9.10;99.90;;;;;;5061584;28;20093;-72
2023/12/26 10:29:14;;;;;;;1.42;0.60;;;9.10;99.90;;;;;;5083765;28;20039;-70
2023/12/26 10:31:41;;;;;;;0.43;0.30;;;9.10;99.90;;;;;;5087615;28;20032;-72
2023/12/26 10:34:20;;;;;;;2.28;0.77;;;9.10;99.90;;;;;;5076047;28;20036;-72
2023/12/26 10:36:47;;;;;;;4.43;1.00;;;9.10;99.90;;;;;;5066702;28;20511;-73
2023/12/26 10:39:13;;;;;;;2.50;0.95;;;9.00;99.90;;;;;;5083117;28;20044;-72
2023/12/26 10:41:49;;;;;;;2.22;0.95;;;9.00;99.90;;;;;;5083203;28;20583;-72
2023/12/26 10:44:16;;;;;;;0.98;0.55;;;9.00;99.90;;;;;;5098679;28;20144;-72
2023/12/26 10:46:43;;;;;;;3.90;0.50;;;9.00;99.90;;;;;;5071938;28;20047;-72
2023/12/26 10:49:21;;;;;;;1.58;0.65;;;9.00;99.90;;;;;;5063913;28;20051;-71
2023/12/26 10:51:51;;;;;;;1.15;0.50;;;9.00;99.90;;;;;;5072128;28;20438;-72
2023/12/26 10:54:21;;;;;;;2.67;0.60;;;9.00;99.90;;;;;;5062073;28;20460;-73
2023/12/26 10:56:51;;;;;;;2.35;0.70;;;9.00;99.90;;;;;;5074249;28;20044;-72
2023/12/26 13:51:28;;;;;;;2.38;0.30;;;8.70;99.90;;;;;;5042393;28;20043;-72
2023/12/26 13:54:31;;;;;;;0.47;0.43;;;8.70;99.90;;;;;;5046633;28;20078;-72
2023/12/26 13:57:34;;;;;;;0.68;0.38;;;8.60;99.90;;;;;;5031769;28;20205;-72
2023/12/26 14:00:37;;;;;;;0.10;0.10;;;8.60;99.90;;;;;;5025703;28;20045;-72
2023/12/26 14:03:48;;;;;;;0.55;0.10;;;8.50;99.90;;;;;;5044847;28;20044;-72
2023/12/26 14:06:52;;;;;;;0.00;0.00;;;8.50;99.90;;;;;;5064192;28;20048;-72
2023/12/26 14:09:55;;;;;;;0.20;0.10;;;8.40;99.90;;;;;;5046279;28;20032;-72
2023/12/26 14:12:58;;;;;;;0.00;0.00;;;8.40;99.90;;;;;;5026070;28;20036;-72
2023/12/26 14:16:02;;;;;;;0.10;0.10;;;8.40;99.90;;;;;;5026441;28;20040;-72
2023/12/26 14:19:05;;;;;;;0.63;0.20;;;8.40;99.90;;;;;;5044354;28;20053;-72
2023/12/26 14:22:08;;;;;;;4.50;0.30;;;8.30;99.90;;;;;;5048383;28;20102;-72
2023/12/26 14:25:12;;;;;;;0.77;0.10;;;8.30;99.90;;;;;;5052437;28;20044;-72
2023/12/26 14:28:15;;;;;;;0.28;0.05;;;8.30;99.90;;;;;;5028889;28;20359;-73
2023/12/26 14:31:20;;;;;;;0.13;0.10;;;8.20;99.90;;;;;;5028234;28;20036;-72
2023/12/26 14:34:23;;;;;;;1.48;0.20;;;8.20;99.90;;;;;;5046422;28;20113;-72
2023/12/26 14:37:27;;;;;;;0.00;0.00;;;8.10;99.90;;;;;;5049990;28;20041;-72
2023/12/26 14:40:30;;;;;;;0.00;0.00;;;8.10;99.90;;;;;;5037731;28;20040;-72
2023/12/26 14:43:33;;;;;;;0.20;0.10;;;8.00;99.90;;;;;;5062229;28;20036;-72
2023/12/26 14:46:37;;;;;;;0.60;0.10;;;8.00;99.90;;;;;;5032538;28;20131;-72
2023/12/26 14:49:40;;;;;;;0.28;0.20;;;7.90;99.90;;;;;;5050882;28;20584;-72
2023/12/26 14:52:44;;;;;;;0.03;0.03;;;7.90;99.90;;;;;;5054943;28;20072;-72
2023/12/26 14:55:47;;;;;;;0.10;0.08;;;7.90;99.90;;;;;;5029976;28;20152;-72
2023/12/26 14:58:50;;;;;;;0.10;0.10;;;7.90;99.90;;;;;;5051546;28;20378;-72
2023/12/26 15:01:58;;;;;;;2.65;0.40;;;7.90;99.90;;;;;;5049702;28;20120;-72
2023/12/26 15:04:24;;;;;;;4.88;1.20;;;7.80;99.90;;;;;;5037473;28;20538;-72
2023/12/26 15:06:50;;;;;;;2.20;0.75;;;7.80;99.90;;;;;;5046493;28;20036;-72
2023/12/26 15:09:15;;;;;;;2.78;0.30;;;7.80;99.90;;;;;;5031425;28;20421;-72
2023/12/26 15:11:41;;;;;;;0.30;0.30;;;7.70;99.90;;;;;;5039526;28;20119;-72
2023/12/26 15:14:11;;;;;;;1.73;0.30;;;7.70;99.90;;;;;;5037818;28;20044;-72
2023/12/26 15:16:37;;;;;;;0.85;0.20;;;7.70;99.90;;;;;;5025019;28;20045;-70
2023/12/26 15:19:03;;;;;;;1.75;0.50;;;7.60;99.90;;;;;;5046529;28;20563;-69
2023/12/26 15:21:28;;;;;;;0.82;0.20;;;7.60;99.90;;;;;;5023552;28;20656;-70
2023/12/26 15:23:54;;;;;;;1.17;0.10;;;7.60;99.90;;;;;;5029571;28;20060;-69
2023/12/26 15:26:21;;;;;;;0.95;0.15;;;7.60;99.90;;;;;;5024780;28;20321;-70
2023/12/26 15:28:47;;;;;;;0.08;0.05;;;7.60;99.90;;;;;;5042114;28;20048;-70
2023/12/26 15:31:18;;;;;;;0.32;0.15;;;7.60;99.90;;;;;;5039082;28;20047;-70
2023/12/26 15:33:50;;;;;;;0.38;0.20;;;7.50;99.90;;;;;;5025260;28;20055;-69
2023/12/26 15:36:17;;;;;;;2.70;0.55;;;7.50;99.90;;;;;;5039928;28;20041;-70
2023/12/26 15:38:44;;;;;;;0.32;0.17;;;7.50;99.90;;;;;;5041733;28;20478;-70
2023/12/26 15:41:09;;;;;;;0.00;0.00;;;7.50;99.90;;;;;;5043285;28;20044;-70
2023/12/26 15:43:35;;;;;;;0.30;0.10;;;7.50;99.90;;;;;;5044646;28;20032;-70
2023/12/26 15:46:01;;;;;;;0.98;0.30;;;7.50;99.90;;;;;;5022411;28;20039;-69
2023/12/26 15:48:26;;;;;;;0.50;0.08;;;7.50;99.90;;;;;;5040098;28;20032;-69
2023/12/26 15:50:52;;;;;;;0.00;0.00;;;7.50;99.90;;;;;;5041818;28;20375;-70
2023/12/26 15:53:18;;;;;;;0.10;0.05;;;7.50;99.90;;;;;;5040662;28;20119;-70
2023/12/26 15:55:43;;;;;;;1.40;0.32;;;7.50;99.90;;;;;;5040683;28;20044;-70
2023/12/26 15:58:09;;;;;;;0.20;0.10;;;7.50;99.90;;;;;;5056082;28;20040;-72
2023/12/26 16:00:37;;;;;;;0.57;0.10;;;7.50;99.90;;;;;;5035566;28;20047;-72